createdAt,value
2023-04-02T00:01:27.189Z,8.45
2023-04-02T00:04:16.244Z,8.41
2023-04-02T00:06:49.244Z,8.42
2023-04-02T00:09:33.606Z,8.44
2023-04-02T00:12:16.260Z,8.43
2023-04-02T00:14:50.002Z,8.40
2023-04-02T00:17:19.034Z,8.42
2023-04-02T00:19:52.766Z,8.38
2023-04-02T00:22:22.757Z,8.41
2023-04-02T00:24:54.067Z,8.43
2023-04-02T00:27:23.048Z,8.40
2023-04-02T00:29:53.453Z,8.40
2023-04-02T00:32:25.788Z,8.32
2023-04-02T00:34:56.339Z,8.33
2023-04-02T00:37:27.601Z,8.32
2023-04-02T00:40:02.047Z,8.32
2023-04-02T00:42:32.145Z,8.35
2023-04-02T00:45:02.552Z,8.37
2023-04-02T00:47:34.221Z,8.38
2023-04-02T00:50:07.698Z,8.35
2023-04-02T00:52:36.628Z,8.35
2023-04-02T00:55:10.451Z,8.37
2023-04-02T00:57:43.145Z,8.35
2023-04-02T01:00:21.615Z,8.37
2023-04-02T01:03:28.667Z,8.38
2023-04-02T01:06:05.042Z,8.40
2023-04-02T01:08:43.903Z,8.46
2023-04-02T01:11:25.835Z,8.20
2023-04-02T01:13:59.438Z,8.31
2023-04-02T01:16:36.421Z,8.28
2023-04-02T01:19:15.099Z,8.30
2023-04-02T01:21:55.262Z,8.32
2023-04-02T01:24:26.539Z,8.34
2023-04-02T01:26:57.691Z,8.26
2023-04-02T01:29:29.856Z,8.27
2023-04-02T01:32:01.785Z,8.32
2023-04-02T01:34:32.169Z,8.34
2023-04-02T01:37:08.602Z,8.30
2023-04-02T01:39:47.666Z,8.32
2023-04-02T01:42:21.193Z,8.33
2023-04-02T01:44:52.735Z,8.32
2023-04-02T01:47:24.519Z,8.32
2023-04-02T01:49:54.563Z,8.31
2023-04-02T01:52:34.150Z,8.32
2023-04-02T01:55:03.443Z,8.29
2023-04-02T01:57:32.229Z,8.32
2023-04-02T02:00:06.233Z,8.29
2023-04-02T02:02:35.084Z,8.31
2023-04-02T02:05:04.468Z,8.32
2023-04-02T02:07:33.244Z,8.34
2023-04-02T02:10:02.215Z,8.34
2023-04-02T02:12:31.107Z,8.36
2023-04-02T02:14:59.792Z,8.32
2023-04-02T02:17:33.680Z,8.33
2023-04-02T02:20:04.960Z,8.34
2023-04-02T02:22:35.993Z,8.36
2023-04-02T02:25:07.478Z,8.39
2023-04-02T02:27:49.455Z,8.34
2023-04-02T02:30:21.857Z,8.42
2023-04-02T02:32:56.541Z,8.34
2023-04-02T02:35:28.283Z,8.28
2023-04-02T02:37:58.957Z,8.33
2023-04-02T02:40:30.503Z,8.34
2023-04-02T02:43:02.881Z,8.32
2023-04-02T02:45:35.805Z,8.29
2023-04-02T02:48:11.645Z,8.28
2023-04-02T02:50:41.149Z,8.37
2023-04-02T02:53:18.798Z,8.36
2023-04-02T02:55:48.988Z,8.28
2023-04-02T02:58:20.050Z,8.31
2023-04-02T03:00:49.116Z,8.25
2023-04-02T03:03:23.146Z,8.28
2023-04-02T03:05:53.705Z,8.34
2023-04-02T03:08:26.571Z,8.34
2023-04-02T03:10:57.887Z,8.33
2023-04-02T03:13:32.670Z,8.35
2023-04-02T03:16:04.102Z,8.32
2023-04-02T03:18:39.016Z,8.34
2023-04-02T03:21:22.909Z,8.34
2023-04-02T03:23:54.956Z,8.32
2023-04-02T03:26:28.074Z,8.31
2023-04-02T03:28:59.570Z,8.33
2023-04-02T03:31:33.434Z,8.33
2023-04-02T03:34:05.969Z,8.35
2023-04-02T03:36:38.289Z,8.36
2023-04-02T03:39:13.123Z,8.38
2023-04-02T03:41:45.909Z,8.38
2023-04-02T03:44:20.684Z,8.39
2023-04-02T03:46:57.278Z,8.36
2023-04-02T03:49:31.216Z,8.38
2023-04-02T03:52:04.727Z,8.36
2023-04-02T03:54:33.471Z,8.37
2023-04-02T03:57:02.297Z,8.41
2023-04-02T03:59:39.179Z,8.43
2023-04-02T04:02:16.866Z,8.42
2023-04-02T04:04:47.385Z,8.45
2023-04-02T04:07:22.750Z,8.48
2023-04-02T04:09:52.692Z,8.43
2023-04-02T04:12:28.136Z,8.44
2023-04-02T04:15:00.983Z,8.41
2023-04-02T04:17:34.875Z,8.51
2023-04-02T04:20:15.735Z,8.45
2023-04-02T04:22:44.614Z,8.42
2023-04-02T04:25:22.331Z,8.41
2023-04-02T04:28:05.603Z,8.42
2023-04-02T04:30:42.667Z,8.39
2023-04-02T04:33:15.294Z,8.38
2023-04-02T04:35:49.771Z,8.39
2023-04-02T04:38:21.737Z,8.40
2023-04-02T04:40:54.126Z,8.41
2023-04-02T04:43:30.946Z,8.48
2023-04-02T04:46:02.042Z,8.43
2023-04-02T04:48:36.336Z,8.42
2023-04-02T04:51:10.096Z,8.31
2023-04-02T04:53:47.405Z,8.32
2023-04-02T04:56:19.755Z,8.37
2023-04-02T04:58:51.148Z,8.41
2023-04-02T05:01:23.018Z,8.42
2023-04-02T05:03:55.111Z,8.39
2023-04-02T05:06:35.499Z,8.36
2023-04-02T05:09:09.258Z,8.34
2023-04-02T05:11:41.611Z,8.36
2023-04-02T05:14:19.868Z,8.37
2023-04-02T05:16:52.779Z,8.33
2023-04-02T05:19:25.170Z,8.35
2023-04-02T05:21:58.838Z,8.35
2023-04-02T05:24:40.092Z,8.39
2023-04-02T05:27:19.046Z,8.35
2023-04-02T05:29:52.156Z,8.37
2023-04-02T05:32:23.044Z,8.35
2023-04-02T05:34:54.818Z,8.32
2023-04-02T05:37:27.636Z,8.36
2023-04-02T05:39:58.278Z,8.33
2023-04-02T05:42:29.294Z,8.34
2023-04-02T05:45:06.266Z,8.35
2023-04-02T05:47:40.642Z,8.36
2023-04-02T05:50:19.110Z,8.36
2023-04-02T05:52:51.776Z,8.35
2023-04-02T05:55:40.066Z,8.37
2023-04-02T05:58:34.567Z,8.34
2023-04-02T06:01:17.460Z,8.36
2023-04-02T06:03:52.309Z,8.35
2023-04-02T06:06:29.032Z,8.34
2023-04-02T06:09:02.372Z,8.35
2023-04-02T06:11:32.585Z,8.35
2023-04-02T06:14:01.278Z,8.34
2023-04-02T06:16:34.255Z,8.39
2023-04-02T06:19:03.196Z,8.45
2023-04-02T06:21:32.743Z,8.48
2023-04-02T06:24:04.549Z,8.44
2023-04-02T06:26:35.080Z,8.45
2023-04-02T06:29:08.005Z,8.47
2023-04-02T06:31:37.823Z,8.51
2023-04-02T06:34:07.987Z,8.53
2023-04-02T06:36:36.547Z,8.55
2023-04-02T06:39:09.329Z,8.53
2023-04-02T06:41:37.933Z,8.52
2023-04-02T06:44:10.590Z,8.50
2023-04-02T06:46:42.349Z,8.54
2023-04-02T06:49:18.371Z,8.54
2023-04-02T06:51:47.768Z,8.52
2023-04-02T06:54:19.014Z,8.48
2023-04-02T06:56:49.146Z,8.46
2023-04-02T06:59:19.192Z,8.50
2023-04-02T07:01:49.881Z,8.45
2023-04-02T07:04:19.419Z,8.52
2023-04-02T07:06:48.121Z,8.53
2023-04-02T07:09:18.143Z,8.55
2023-04-02T07:11:47.042Z,8.57
2023-04-02T07:14:15.966Z,8.61
2023-04-02T07:16:45.390Z,8.66
2023-04-02T07:19:18.486Z,8.70
2023-04-02T07:21:47.537Z,8.70
2023-04-02T07:24:16.287Z,8.76
2023-04-02T07:26:48.059Z,8.79
2023-04-02T07:29:17.419Z,8.84
2023-04-02T07:31:46.205Z,8.85
2023-04-02T07:34:14.905Z,8.81
2023-04-02T07:36:43.613Z,8.92
2023-04-02T07:39:12.283Z,8.94
2023-04-02T07:41:56.597Z,8.96
2023-04-02T07:44:25.399Z,8.96
2023-04-02T07:46:54.090Z,8.97
2023-04-02T07:49:23.061Z,8.97
2023-04-02T07:51:52.642Z,8.96
2023-04-02T07:54:21.260Z,8.98
2023-04-02T07:56:49.906Z,8.94
2023-04-02T07:59:19.855Z,9.02
2023-04-02T08:01:48.515Z,9.07
2023-04-02T08:04:19.605Z,9.10
2023-04-02T08:06:49.272Z,9.12
2023-04-02T08:09:18.259Z,9.20
2023-04-02T08:11:46.948Z,9.18
2023-04-02T08:14:15.957Z,9.20
2023-04-02T08:16:47.951Z,9.27
2023-04-02T08:19:16.641Z,9.29
2023-04-02T08:21:45.673Z,9.31
2023-04-02T08:24:14.382Z,9.36
2023-04-02T08:26:45.007Z,9.33
2023-04-02T08:29:14.163Z,9.40
2023-04-02T08:31:42.836Z,9.38
2023-04-02T08:34:13.125Z,9.43
2023-04-02T08:36:44.587Z,9.46
2023-04-02T08:39:13.463Z,9.49
2023-04-02T08:41:46.313Z,9.54
2023-04-02T08:44:23.531Z,9.57
2023-04-02T08:46:54.974Z,9.57
2023-04-02T08:49:30.424Z,9.59
2023-04-02T08:51:59.225Z,9.62
2023-04-02T08:54:30.483Z,9.67
2023-04-02T08:57:02.154Z,9.76
2023-04-02T08:59:34.300Z,9.74
2023-04-02T09:02:22.238Z,9.85
2023-04-02T09:04:52.717Z,9.91
2023-04-02T09:07:21.799Z,10.04
2023-04-02T09:09:51.075Z,9.99
2023-04-02T09:12:20.949Z,10.08
2023-04-02T09:14:59.491Z,10.18
2023-04-02T09:17:29.981Z,10.26
2023-04-02T09:20:06.163Z,10.20
2023-04-02T09:22:35.850Z,10.23
2023-04-02T09:25:07.223Z,10.15
2023-04-02T09:27:37.401Z,10.23
2023-04-02T09:30:14.119Z,10.27
2023-04-02T09:32:50.214Z,10.27
2023-04-02T09:35:36.620Z,10.32
2023-04-02T09:38:18.164Z,10.23
2023-04-02T09:40:49.850Z,10.28
2023-04-02T09:43:19.951Z,10.26
2023-04-02T09:45:57.703Z,10.24
2023-04-02T09:48:30.172Z,10.28
2023-04-02T09:51:11.250Z,10.29
2023-04-02T09:53:42.609Z,10.30
2023-04-02T09:56:13.979Z,10.34
2023-04-02T09:58:44.061Z,10.36
2023-04-02T10:01:30.293Z,10.28
2023-04-02T10:04:02.204Z,10.37
2023-04-02T10:06:34.293Z,10.44
2023-04-02T10:09:21.602Z,10.44
2023-04-02T10:11:51.831Z,10.34
2023-04-02T10:14:23.605Z,10.38
2023-04-02T10:16:53.558Z,10.40
2023-04-02T10:19:27.635Z,10.53
2023-04-02T10:21:59.302Z,10.46
2023-04-02T10:24:29.014Z,10.53
2023-04-02T10:27:04.720Z,10.64
2023-04-02T10:29:48.658Z,10.56
2023-04-02T10:32:20.051Z,10.56
2023-04-02T10:34:53.736Z,10.69
2023-04-02T10:37:45.613Z,10.78
2023-04-02T10:40:20.597Z,10.87
2023-04-02T10:42:55.606Z,10.90
2023-04-02T10:45:36.885Z,10.91
2023-04-02T10:48:11.522Z,10.95
2023-04-02T10:50:45.066Z,11.01
2023-04-02T10:53:18.847Z,11.10
2023-04-02T10:55:49.847Z,11.01
2023-04-02T10:58:23.592Z,11.08
2023-04-02T11:00:56.648Z,11.12
2023-04-02T11:03:32.342Z,11.08
2023-04-02T11:06:03.828Z,11.12
2023-04-02T11:08:41.205Z,11.14
2023-04-02T11:11:13.800Z,11.12
2023-04-02T11:13:51.301Z,11.15
2023-04-02T11:16:20.029Z,11.16
2023-04-02T11:19:17.950Z,11.16
2023-04-02T11:21:57.991Z,11.11
2023-04-02T11:24:37.966Z,11.15
2023-04-02T11:27:17.260Z,11.15
2023-04-02T11:29:46.861Z,11.13
2023-04-02T11:32:43.447Z,11.12
2023-04-02T11:35:42.791Z,10.96
2023-04-02T11:38:50.528Z,10.82
2023-04-02T11:42:05.459Z,10.95
2023-04-02T11:44:34.244Z,11.00
2023-04-02T11:47:22.547Z,11.07
2023-04-02T11:50:05.999Z,10.97
2023-04-02T11:52:51.707Z,11.00
2023-04-02T11:55:27.270Z,10.97
2023-04-02T11:58:25.283Z,11.04
2023-04-02T12:01:14.842Z,11.06
2023-04-02T12:03:53.306Z,11.13
2023-04-02T12:06:28.966Z,11.18
2023-04-02T12:09:05.910Z,11.23
2023-04-02T12:11:36.328Z,11.26
2023-04-02T12:14:42.538Z,11.34
2023-04-02T12:17:21.390Z,11.39
2023-04-02T12:19:52.509Z,11.36
2023-04-02T12:22:23.550Z,11.43
2023-04-02T12:24:55.056Z,11.46
2023-04-02T12:27:27.842Z,11.43
2023-04-02T12:30:12.537Z,11.30
2023-04-02T12:32:41.565Z,11.40
2023-04-02T12:35:28.452Z,11.44
2023-04-02T12:37:57.175Z,11.54
2023-04-02T12:40:26.988Z,11.57
2023-04-02T12:42:56.033Z,11.54
2023-04-02T12:45:29.347Z,11.61
2023-04-02T12:47:58.926Z,11.64
2023-04-02T12:50:27.703Z,11.64
2023-04-02T12:52:58.817Z,11.66
2023-04-02T12:55:28.162Z,11.63
2023-04-02T12:57:57.814Z,11.67
2023-04-02T13:00:34.379Z,11.71
2023-04-02T13:03:17.431Z,11.81
2023-04-02T13:05:48.423Z,11.82
2023-04-02T13:08:19.711Z,11.86
2023-04-02T13:10:53.732Z,11.89
2023-04-02T13:13:27.805Z,11.87
2023-04-02T13:16:07.413Z,11.91
2023-04-02T13:18:39.758Z,11.97
2023-04-02T13:21:28.141Z,11.96
2023-04-02T13:23:57.296Z,11.94
2023-04-02T13:26:27.178Z,11.94
2023-04-02T13:29:01.134Z,11.90
2023-04-02T13:31:32.803Z,11.73
2023-04-02T13:34:02.152Z,11.59
2023-04-02T13:36:31.118Z,11.57
2023-04-02T13:38:59.740Z,11.52
2023-04-02T13:41:30.261Z,11.46
2023-04-02T13:44:00.897Z,11.39
2023-04-02T13:46:33.214Z,11.37
2023-04-02T13:49:01.982Z,11.23
2023-04-02T13:51:37.007Z,11.21
2023-04-02T13:54:10.022Z,11.25
2023-04-02T13:56:38.696Z,11.14
2023-04-02T13:59:07.358Z,11.12
2023-04-02T14:01:37.671Z,11.10
2023-04-02T14:04:07.339Z,11.11
2023-04-02T14:06:56.034Z,11.10
2023-04-02T14:09:30.322Z,11.09
2023-04-02T14:12:04.985Z,11.02
2023-04-02T14:14:53.820Z,11.13
2023-04-02T14:17:31.841Z,11.21
2023-04-02T14:20:10.943Z,11.22
2023-04-02T14:22:49.588Z,11.18
2023-04-02T14:25:25.813Z,10.97
2023-04-02T14:27:59.746Z,10.69
2023-04-02T14:30:37.441Z,10.73
2023-04-02T14:33:11.313Z,10.74
2023-04-02T14:35:43.906Z,10.73
2023-04-02T14:38:17.620Z,10.73
2023-04-02T14:40:50.102Z,10.69
2023-04-02T14:43:24.144Z,10.60
2023-04-02T14:45:58.733Z,10.69
2023-04-02T14:48:44.122Z,10.67
2023-04-02T14:51:18.758Z,10.61
2023-04-02T14:53:53.710Z,10.44
2023-04-02T14:56:23.196Z,10.55
2023-04-02T14:58:56.628Z,10.46
2023-04-02T15:01:28.524Z,10.55
2023-04-02T15:04:03.096Z,10.56
2023-04-02T15:06:34.678Z,10.63
2023-04-02T15:09:09.279Z,10.63
2023-04-02T15:11:39.916Z,10.58
2023-04-02T15:14:13.047Z,10.55
2023-04-02T15:16:41.880Z,10.56
2023-04-02T15:19:14.401Z,10.59
2023-04-02T15:24:28.242Z,10.26
2023-04-02T15:27:11.913Z,10.32
2023-04-02T15:29:50.647Z,10.28
2023-04-02T15:32:28.349Z,10.25
2023-04-02T15:35:02.762Z,10.21
2023-04-02T15:37:34.662Z,10.01
2023-04-02T15:40:20.818Z,9.92
2023-04-02T15:42:54.409Z,9.79
2023-04-02T15:45:30.913Z,9.68
2023-04-02T15:48:26.785Z,9.75
2023-04-02T15:51:01.297Z,9.67
2023-04-02T15:53:35.518Z,9.55
2023-04-02T15:56:10.021Z,9.56
2023-04-02T15:58:48.599Z,9.56
2023-04-02T16:01:26.823Z,9.59
2023-04-02T16:04:19.727Z,9.62
2023-04-02T16:07:01.772Z,9.57
2023-04-02T16:09:35.417Z,9.54
2023-04-02T16:12:13.649Z,9.47
2023-04-02T16:14:43.916Z,9.46
2023-04-02T16:17:24.915Z,9.42
2023-04-02T16:19:57.907Z,9.39
2023-04-02T16:22:30.036Z,9.39
2023-04-02T16:25:02.065Z,9.41
2023-04-02T16:27:33.954Z,9.34
2023-04-02T16:30:27.495Z,9.32
2023-04-02T16:33:04.578Z,9.28
2023-04-02T16:35:43.109Z,9.17
2023-04-02T16:38:25.760Z,9.14
2023-04-02T16:41:08.528Z,9.16
2023-04-02T16:43:44.504Z,9.15
2023-04-02T16:46:31.738Z,9.03
2023-04-02T16:49:14.741Z,9.01
2023-04-02T16:51:47.030Z,9.01
2023-04-02T16:54:20.512Z,8.85
2023-04-02T16:56:58.408Z,8.88
2023-04-02T16:59:32.848Z,8.84
2023-04-02T17:02:05.473Z,8.87
2023-04-02T17:04:51.381Z,8.86
2023-04-02T17:07:30.782Z,8.53
2023-04-02T17:10:08.590Z,8.57
2023-04-02T17:12:42.645Z,8.47
2023-04-02T17:15:27.221Z,8.43
2023-04-02T17:17:58.568Z,8.43
2023-04-02T17:20:27.371Z,8.35
2023-04-02T17:22:56.828Z,8.33
2023-04-02T17:25:29.747Z,8.37
2023-04-02T17:27:58.622Z,8.26
2023-04-02T17:30:36.094Z,8.27
2023-04-02T17:33:08.373Z,8.20
2023-04-02T17:35:44.994Z,8.13
2023-04-02T17:38:19.678Z,8.21
2023-04-02T17:40:53.767Z,8.22
2023-04-02T17:43:34.042Z,8.24
2023-04-02T17:46:06.047Z,8.13
2023-04-02T17:48:41.865Z,8.10
2023-04-02T17:51:17.180Z,8.08
2023-04-02T17:53:54.928Z,8.04
2023-04-02T17:56:34.917Z,8.08
2023-04-02T17:59:26.380Z,8.10
2023-04-02T18:02:03.192Z,8.03
2023-04-02T18:04:41.603Z,7.92
2023-04-02T18:07:25.974Z,7.93
2023-04-02T18:10:02.367Z,7.80
2023-04-02T18:12:42.228Z,7.80
2023-04-02T18:15:26.355Z,7.82
2023-04-02T18:17:58.398Z,7.72
2023-04-02T18:20:32.707Z,7.70
2023-04-02T18:23:08.751Z,7.57
2023-04-02T18:25:50.406Z,7.63
2023-04-02T18:28:34.786Z,7.53
2023-04-02T18:31:08.270Z,7.56
2023-04-02T18:33:56.864Z,7.51
2023-04-02T18:36:33.533Z,7.54
2023-04-02T18:39:06.327Z,7.37
2023-04-02T18:41:44.961Z,7.45
2023-04-02T18:44:28.537Z,7.21
2023-04-02T18:46:59.978Z,7.23
2023-04-02T18:49:29.895Z,7.26
2023-04-02T18:52:01.839Z,7.17
2023-04-02T18:54:33.760Z,7.17
2023-04-02T18:57:06.850Z,7.07
2023-04-02T18:59:42.543Z,7.05
2023-04-02T19:02:30.533Z,6.92
2023-04-02T19:05:01.548Z,6.90
2023-04-02T19:07:32.867Z,6.87
2023-04-02T19:10:08.924Z,6.78
2023-04-02T19:12:37.553Z,6.68
2023-04-02T19:15:17.445Z,6.69
2023-04-02T19:17:48.158Z,6.69
2023-04-02T19:20:26.557Z,6.57
2023-04-02T19:23:00.861Z,6.65
2023-04-02T19:25:41.519Z,6.45
2023-04-02T19:28:16.233Z,6.45
2023-04-02T19:30:57.579Z,6.45
2023-04-02T19:33:35.404Z,6.27
2023-04-02T19:36:10.871Z,6.21
2023-04-02T19:38:50.761Z,6.34
2023-04-02T19:41:27.243Z,6.31
2023-04-02T19:43:56.380Z,6.26
2023-04-02T19:46:27.288Z,6.19
2023-04-02T19:49:03.103Z,6.08
2023-04-02T19:51:31.849Z,6.14
2023-04-02T19:54:01.001Z,6.11
2023-04-02T19:56:29.733Z,6.16
2023-04-02T19:59:00.164Z,6.17
2023-04-02T20:01:32.487Z,6.24
2023-04-02T20:04:01.348Z,6.15
2023-04-02T20:06:31.543Z,6.10
2023-04-02T20:09:00.767Z,6.11
2023-04-02T20:11:29.401Z,5.92
2023-04-02T20:13:58.170Z,5.95
2023-04-02T20:16:26.982Z,6.03
2023-04-02T20:18:57.174Z,5.79
2023-04-02T20:21:26.730Z,5.90
2023-04-02T20:23:55.814Z,5.85
2023-04-02T20:26:24.467Z,5.80
2023-04-02T20:28:53.189Z,5.81
2023-04-02T20:31:21.834Z,5.60
2023-04-02T20:33:50.683Z,5.62
2023-04-02T20:36:21.779Z,5.54
2023-04-02T20:38:51.338Z,5.60
2023-04-02T20:41:21.771Z,5.56
2023-04-02T20:43:50.860Z,5.46
2023-04-02T20:46:19.954Z,5.53
2023-04-02T20:48:48.614Z,5.56
2023-04-02T20:51:17.263Z,5.51
2023-04-02T20:53:47.676Z,5.53
2023-04-02T20:56:17.699Z,5.52
2023-04-02T20:58:46.499Z,5.49
2023-04-02T21:01:18.781Z,5.50
2023-04-02T21:03:48.287Z,5.44
2023-04-02T21:06:18.926Z,5.44
2023-04-02T21:08:49.746Z,5.39
2023-04-02T21:11:18.937Z,5.45
2023-04-02T21:13:47.529Z,5.46
2023-04-02T21:16:17.600Z,5.47
2023-04-02T21:18:47.408Z,5.48
2023-04-02T21:21:16.792Z,5.54
2023-04-02T21:23:45.959Z,5.58
2023-04-02T21:26:17.384Z,5.53
2023-04-02T21:28:46.652Z,5.44
2023-04-02T21:31:16.675Z,5.42
2023-04-02T21:33:47.367Z,5.42
2023-04-02T21:36:17.707Z,5.40
2023-04-02T21:38:47.730Z,5.46
2023-04-02T21:41:19.436Z,5.45
2023-04-02T21:43:48.386Z,5.45
2023-04-02T21:46:17.263Z,5.43
2023-04-02T21:48:46.594Z,5.43
2023-04-02T21:51:16.876Z,5.39
2023-04-02T21:53:46.052Z,5.35
2023-04-02T21:56:18.345Z,5.39
2023-04-02T21:58:48.092Z,5.44
2023-04-02T22:01:26.932Z,5.49
2023-04-02T22:03:56.877Z,5.31
2023-04-02T22:06:27.319Z,5.32
2023-04-02T22:08:58.207Z,5.32
2023-04-02T22:11:30.702Z,5.30
2023-04-02T22:14:00.242Z,5.22
2023-04-02T22:16:30.441Z,5.24
2023-04-02T22:19:00.880Z,5.21
2023-04-02T22:21:30.724Z,5.19
2023-04-02T22:24:00.367Z,5.17
2023-04-02T22:26:31.194Z,5.25
2023-04-02T22:29:00.336Z,5.23
2023-04-02T22:31:31.293Z,5.21
2023-04-02T22:34:00.862Z,5.19
2023-04-02T22:36:30.172Z,5.25
2023-04-02T22:38:59.442Z,5.25
2023-04-02T22:41:31.887Z,5.22
2023-04-02T22:44:01.823Z,5.16
2023-04-02T22:46:31.134Z,5.23
2023-04-02T22:48:59.899Z,5.24
2023-04-02T22:51:28.857Z,5.21
2023-04-02T22:53:58.236Z,5.18
2023-04-02T22:56:28.730Z,5.11
2023-04-02T22:58:58.868Z,5.05
2023-04-02T23:01:29.957Z,5.04
2023-04-02T23:03:58.746Z,5.09
2023-04-02T23:06:28.117Z,5.11
2023-04-02T23:08:56.847Z,5.14
2023-04-02T23:11:27.184Z,5.08
2023-04-02T23:13:58.334Z,5.06
2023-04-02T23:16:27.878Z,5.05
2023-04-02T23:18:57.235Z,5.11
2023-04-02T23:21:26.882Z,4.90
2023-04-02T23:23:55.790Z,5.00
2023-04-02T23:26:26.041Z,4.91
2023-04-02T23:28:54.645Z,4.79
2023-04-02T23:31:25.424Z,4.83
2023-04-02T23:33:54.058Z,4.78
2023-04-02T23:36:24.914Z,4.73
2023-04-02T23:38:55.123Z,4.71
2023-04-02T23:41:26.658Z,4.59
2023-04-02T23:43:55.864Z,4.56
2023-04-02T23:46:26.698Z,4.61
2023-04-02T23:48:56.149Z,4.58
2023-04-02T23:51:25.894Z,4.63
2023-04-02T23:53:55.420Z,4.80
2023-04-02T23:56:24.446Z,4.81
2023-04-02T23:58:53.065Z,4.75
